Time;durP1;ratioP1;P1;durP2;ratioP2;P2;SDS_P1;SDS_P2;PMS_P1;PMS_P2;Temp;Humidity;BMP_temperature;BMP_pressure;BME280_temperature;BME280_humidity;BME280_pressure;Samples;Min_cycle;Max_cycle;Signal;HPM_P1;HPM_P2
2024/01/05 00:00:17;;;;;;;15.87;4.10;;;;;;;-145.18;100.00;47096.00;5059548;28;20044;-72
2024/01/05 00:02:42;;;;;;;23.13;4.10;;;;;;;-145.18;100.00;47094.06;5099802;28;20032;-73
2024/01/05 00:05:08;;;;;;;15.10;4.13;;;;;;;-145.18;100.00;47094.06;5090857;28;20709;-72
2024/01/05 00:07:33;;;;;;;22.03;4.23;;;;;;;-145.18;100.00;47094.06;5077421;28;20492;-72
2024/01/05 00:09:59;;;;;;;24.63;5.40;;;;;;;-145.18;100.00;47099.91;5068556;28;20036;-72
2024/01/05 00:12:24;;;;;;;24.50;4.40;;;;;;;-145.18;100.00;47101.88;5074129;28;20396;-72
2024/01/05 00:14:50;;;;;;;21.43;5.23;;;;;;;-145.18;100.00;47099.91;5090989;28;20053;-72
2024/01/05 00:17:15;;;;;;;22.87;4.53;;;;;;;-145.18;100.00;47097.97;5049279;28;20119;-72
2024/01/05 00:19:41;;;;;;;22.00;4.87;;;;;;;-145.18;100.00;47099.91;5083073;28;20439;-72
2024/01/05 00:22:06;;;;;;;22.97;5.07;;;;;;;-145.18;100.00;47097.97;5076027;28;20067;-72
2024/01/05 00:24:31;;;;;;;28.63;5.20;;;;;;;-145.18;100.00;47097.97;5078583;28;20039;-72
2024/01/05 00:26:59;;;;;;;18.73;5.00;;;;;;;-145.18;100.00;47096.00;5075230;28;20041;-72
2024/01/05 00:29:24;;;;;;;15.73;4.90;;;;;;;-145.18;100.00;47094.06;5082493;28;20052;-73
2024/01/05 00:31:50;;;;;;;18.50;5.23;;;;;;;-145.18;100.00;47086.25;5068268;28;20311;-72
2024/01/05 00:34:15;;;;;;;24.40;5.67;;;;;;;-145.18;100.00;47092.09;5065283;28;20443;-72
2024/01/05 00:36:40;;;;;;;27.23;6.00;;;;;;;-145.18;100.00;47097.97;5093766;28;20032;-72
2024/01/05 00:39:06;;;;;;;16.93;6.80;;;;;;;-145.18;100.00;47097.97;5081152;28;20040;-73
2024/01/05 00:41:31;;;;;;;19.10;6.03;;;;;;;-145.18;100.00;47092.09;5093923;28;20044;-72
2024/01/05 00:43:57;;;;;;;22.33;6.20;;;;;;;-145.18;100.00;47097.97;5082309;28;20040;-72
2024/01/05 00:46:22;;;;;;;17.83;5.63;;;;;;;-145.18;100.00;47096.00;5084835;28;20119;-72
2024/01/05 00:48:47;;;;;;;21.90;6.57;;;;;;;-145.18;100.00;47094.06;5060126;28;20028;-72
2024/01/05 00:51:13;;;;;;;23.13;8.03;;;;;;;-145.18;100.00;47097.97;5086169;28;20060;-72
2024/01/05 00:53:39;;;;;;;24.90;7.07;;;;;;;-145.18;100.00;47099.91;5071733;28;20028;-72
2024/01/05 00:56:05;;;;;;;19.10;5.90;;;;;;;-145.18;100.00;47101.88;5097955;28;20036;-72
2024/01/05 00:58:31;;;;;;;20.47;5.60;;;;;;;-145.18;100.00;47101.88;5075042;28;20701;-72
2024/01/05 01:00:56;;;;;;;19.97;6.70;;;;;;;-145.18;100.00;47097.97;5068479;28;20370;-72
2024/01/05 01:03:22;;;;;;;23.93;6.10;;;;;;;-145.18;100.00;47097.97;5074753;28;20032;-72
2024/01/05 01:05:47;;;;;;;23.10;5.00;;;;;;;-145.18;100.00;47096.00;5088310;28;20117;-72
2024/01/05 01:08:12;;;;;;;21.43;4.67;;;;;;;-145.18;100.00;47094.06;5070094;28;20024;-73
2024/01/05 01:10:38;;;;;;;18.40;3.90;;;;;;;-145.18;100.00;47101.88;5083344;28;20033;-72
2024/01/05 01:13:05;;;;;;;22.13;4.30;;;;;;;-145.18;100.00;47099.91;5092907;28;20423;-73
2024/01/05 01:15:30;;;;;;;20.13;3.80;;;;;;;-145.18;100.00;47099.91;5087686;28;20032;-72
2024/01/05 01:17:55;;;;;;;23.27;4.03;;;;;;;-145.18;100.00;47096.00;5069255;28;20267;-71
2024/01/05 01:20:21;;;;;;;15.50;3.63;;;;;;;-145.18;100.00;47096.00;5081046;28;20040;-72
2024/01/05 01:22:46;;;;;;;15.47;4.00;;;;;;;-145.18;100.00;47094.06;5069504;28;20097;-72
2024/01/05 01:25:12;;;;;;;16.47;3.00;;;;;;;-145.18;100.00;47097.97;5064541;28;20028;-72
2024/01/05 01:27:37;;;;;;;19.07;3.70;;;;;;;-145.18;100.00;47094.06;5073491;28;20465;-72
2024/01/05 01:30:04;;;;;;;14.43;2.53;;;;;;;-145.18;100.00;47096.00;5083292;28;20495;-72
2024/01/05 01:32:29;;;;;;;19.27;3.10;;;;;;;-145.18;100.00;47094.06;5086799;28;20032;-72
2024/01/05 01:34:55;;;;;;;13.43;2.90;;;;;;;-145.18;100.00;47101.88;5088237;28;20668;-72
2024/01/05 01:37:20;;;;;;;16.57;2.80;;;;;;;-145.18;100.00;47092.09;5067411;28;20051;-72
2024/01/05 01:39:45;;;;;;;13.83;3.10;;;;;;;-145.18;100.00;47092.09;5074150;28;20040;-72
2024/01/05 01:42:11;;;;;;;15.60;2.77;;;;;;;-145.18;100.00;47097.97;5092752;28;20028;-72
2024/01/05 01:44:36;;;;;;;21.80;3.80;;;;;;;-145.18;100.00;47092.09;5056307;28;20189;-72
2024/01/05 01:47:02;;;;;;;17.80;2.60;;;;;;;-145.18;100.00;47092.09;5067361;28;20086;-72
2024/01/05 01:49:28;;;;;;;14.47;2.40;;;;;;;-145.18;100.00;47088.19;5082502;28;20034;-72
2024/01/05 01:51:54;;;;;;;19.43;2.90;;;;;;;-145.18;100.00;47088.19;5060538;28;20494;-72
2024/01/05 01:54:20;;;;;;;17.70;2.60;;;;;;;-145.18;100.00;47086.25;5067085;28;20318;-72
2024/01/05 01:56:46;;;;;;;13.47;2.00;;;;;;;-145.18;100.00;47084.28;5060198;28;20438;-71
2024/01/05 01:59:13;;;;;;;20.20;2.57;;;;;;;-145.18;100.00;47084.28;5082541;28;20342;-72
2024/01/05 02:01:39;;;;;;;19.47;3.03;;;;;;;-145.18;100.00;47076.47;5079004;28;20257;-72
2024/01/05 02:04:05;;;;;;;12.80;2.30;;;;;;;-145.18;100.00;47078.44;5063626;28;20269;-72
2024/01/05 02:06:32;;;;;;;8.60;2.20;;;;;;;-145.18;100.00;47078.44;5086666;28;20257;-72
2024/01/05 02:08:57;;;;;;;13.13;2.20;;;;;;;-145.18;100.00;47076.47;5077743;28;20264;-72
2024/01/05 02:11:23;;;;;;;15.30;3.40;;;;;;;-145.18;100.00;47072.56;5082909;28;20314;-73
2024/01/05 02:13:48;;;;;;;11.23;2.37;;;;;;;-145.18;100.00;47074.53;5068970;28;20056;-72
2024/01/05 02:16:14;;;;;;;14.63;2.40;;;;;;;-145.18;100.00;47080.38;5081774;28;20042;-72
2024/01/05 02:18:39;;;;;;;17.90;2.73;;;;;;;-145.18;100.00;47072.56;5070010;28;20036;-72
2024/01/05 02:21:08;;;;;;;13.97;2.27;;;;;;;-145.18;100.00;47072.56;5057017;28;20393;-78
2024/01/05 02:23:34;;;;;;;14.37;2.27;;;;;;;-145.18;100.00;47074.53;5083972;28;20028;-79
2024/01/05 02:26:00;;;;;;;17.97;2.87;;;;;;;-145.18;100.00;47074.53;5071562;28;20318;-78
2024/01/05 02:28:26;;;;;;;13.93;1.97;;;;;;;-145.18;100.00;47070.63;5081932;28;20031;-78
2024/01/05 02:30:56;;;;;;;10.43;2.20;;;;;;;-145.18;100.00;47072.56;5084691;28;20263;-79
2024/01/05 02:33:22;;;;;;;18.10;3.03;;;;;;;-145.18;100.00;47070.63;5084844;28;20809;-79
2024/01/05 02:35:48;;;;;;;15.57;3.57;;;;;;;-145.18;100.00;47068.66;5087387;28;20377;-79
2024/01/05 02:38:13;;;;;;;12.13;2.03;;;;;;;-145.18;100.00;47066.72;5102621;28;20433;-79
2024/01/05 02:40:39;;;;;;;11.20;2.50;;;;;;;-145.18;100.00;47062.81;5090142;28;20046;-78
2024/01/05 02:43:04;;;;;;;10.97;2.07;;;;;;;-145.18;100.00;47066.72;5066975;28;20064;-79
2024/01/05 02:45:30;;;;;;;8.57;2.17;;;;;;;-145.18;100.00;47062.81;5087789;28;20032;-79
2024/01/05 02:47:55;;;;;;;14.63;2.50;;;;;;;-145.18;100.00;47066.72;5084406;28;20464;-79
2024/01/05 02:50:21;;;;;;;12.63;1.93;;;;;;;-145.18;100.00;47062.81;5081951;28;20035;-79
2024/01/05 02:52:46;;;;;;;11.60;2.07;;;;;;;-145.18;100.00;47064.75;5090768;28;20510;-79
2024/01/05 02:55:12;;;;;;;14.90;2.60;;;;;;;-145.18;100.00;47064.75;5107755;28;20511;-79
2024/01/05 02:57:38;;;;;;;12.67;2.10;;;;;;;-145.18;100.00;47058.91;5091703;28;20044;-79
2024/01/05 03:00:05;;;;;;;17.33;2.37;;;;;;;-145.18;100.00;47055.00;5089686;28;20314;-79
2024/01/05 03:02:31;;;;;;;8.23;2.43;;;;;;;-145.18;100.00;47055.00;5089045;28;20261;-78
2024/01/05 03:04:57;;;;;;;15.97;2.93;;;;;;;-145.18;100.00;47062.81;5083196;28;20257;-78
2024/01/05 03:07:22;;;;;;;14.27;2.17;;;;;;;-145.18;100.00;47062.81;5089245;28;20016;-78
2024/01/05 03:09:48;;;;;;;10.63;1.93;;;;;;;-145.18;100.00;47056.94;5087069;28;20093;-78
2024/01/05 03:12:13;;;;;;;19.73;2.60;;;;;;;-145.18;100.00;47060.84;5084796;28;20107;-79
2024/01/05 03:14:39;;;;;;;7.70;2.30;;;;;;;-145.18;100.00;47056.94;5085480;28;20052;-78
2024/01/05 03:17:05;;;;;;;14.37;2.03;;;;;;;-145.18;100.00;47056.94;5078850;28;20194;-78
2024/01/05 03:19:30;;;;;;;10.67;2.30;;;;;;;-145.18;100.00;47053.03;5082604;28;20027;-78
2024/01/05 03:21:56;;;;;;;11.03;1.97;;;;;;;-145.18;100.00;47058.91;5065953;28;20261;-78
2024/01/05 03:24:22;;;;;;;16.07;2.43;;;;;;;-145.18;100.00;47056.94;5082217;28;20067;-81
2024/01/05 03:26:48;;;;;;;12.10;2.23;;;;;;;-145.18;100.00;47058.91;5058668;28;20086;-79
2024/01/05 03:29:13;;;;;;;13.57;2.10;;;;;;;-145.18;100.00;47058.91;5078373;28;20729;-73
2024/01/05 03:31:39;;;;;;;16.10;2.57;;;;;;;-145.18;100.00;47051.09;5077857;28;20044;-72
2024/01/05 03:34:04;;;;;;;9.60;2.60;;;;;;;-145.18;100.00;47056.94;5059910;28;20046;-72
2024/01/05 03:36:29;;;;;;;13.00;2.10;;;;;;;-145.18;100.00;47051.09;5077779;28;20028;-72
2024/01/05 03:38:55;;;;;;;11.47;2.30;;;;;;;-145.18;100.00;47053.03;5059292;28;20048;-72
2024/01/05 03:41:21;;;;;;;8.37;1.93;;;;;;;-145.18;100.00;47051.09;5071014;28;20502;-72
2024/01/05 03:43:46;;;;;;;12.10;2.07;;;;;;;-145.18;100.00;47051.09;5075935;28;20091;-72
2024/01/05 03:46:12;;;;;;;7.63;2.70;;;;;;;-145.18;100.00;47051.09;5076481;28;20081;-72
2024/01/05 03:48:38;;;;;;;19.73;2.63;;;;;;;-145.18;100.00;47047.19;5082230;28;20412;-72
2024/01/05 03:51:04;;;;;;;8.50;1.93;;;;;;;-145.18;100.00;47043.28;5086687;28;20090;-72
2024/01/05 03:53:29;;;;;;;9.93;1.90;;;;;;;-145.18;100.00;47049.13;5052386;28;20289;-72
2024/01/05 03:55:58;;;;;;;12.83;2.00;;;;;;;-145.18;100.00;47045.22;5081065;28;20028;-72
2024/01/05 03:58:24;;;;;;;7.70;1.40;;;;;;;-145.18;100.00;47043.28;5082445;28;20059;-72
2024/01/05 04:00:49;;;;;;;10.93;2.93;;;;;;;-145.18;100.00;47039.34;5083317;28;20748;-72
2024/01/05 04:03:16;;;;;;;11.73;1.80;;;;;;;-145.18;100.00;47039.34;5074903;28;20054;-72
2024/01/05 04:05:42;;;;;;;12.90;1.87;;;;;;;-145.18;100.00;47039.34;5075158;28;20056;-72
2024/01/05 04:08:08;;;;;;;10.53;1.93;;;;;;;-145.18;100.00;47043.28;5074708;28;20347;-72
2024/01/05 04:10:33;;;;;;;7.77;2.00;;;;;;;-145.18;100.00;47039.34;5093870;28;20059;-72
2024/01/05 04:12:58;;;;;;;9.80;2.00;;;;;;;-145.18;100.00;47041.31;5093331;28;20060;-72
2024/01/05 04:15:24;;;;;;;10.47;2.03;;;;;;;-145.18;100.00;47035.44;5089881;28;20034;-71
2024/01/05 04:17:49;;;;;;;9.03;1.93;;;;;;;-145.18;100.00;47039.34;5092283;28;20036;-73
2024/01/05 04:20:14;;;;;;;11.03;1.70;;;;;;;-145.18;100.00;47037.41;5075343;28;20032;-72
2024/01/05 04:22:40;;;;;;;5.07;1.60;;;;;;;-145.18;100.00;47035.44;5094222;28;20121;-72
2024/01/05 04:25:05;;;;;;;8.13;1.40;;;;;;;-145.18;100.00;47031.53;5089460;28;20028;-73
2024/01/05 04:27:31;;;;;;;11.03;1.87;;;;;;;-145.18;100.00;47029.59;5077643;28;20424;-72
2024/01/05 04:29:56;;;;;;;12.57;1.90;;;;;;;-145.18;100.00;47029.59;5090226;28;20040;-72
2024/01/05 04:32:22;;;;;;;10.87;1.37;;;;;;;-145.18;100.00;47027.63;5059177;28;20029;-72
2024/01/05 04:34:47;;;;;;;8.83;2.00;;;;;;;-145.18;100.00;47027.63;5079430;28;20148;-72
2024/01/05 04:37:13;;;;;;;16.87;2.53;;;;;;;-145.18;100.00;47021.78;5059480;28;20062;-72
2024/01/05 04:39:39;;;;;;;10.40;1.40;;;;;;;-145.18;100.00;47019.81;5080307;28;20032;-73
2024/01/05 04:42:05;;;;;;;11.13;1.63;;;;;;;-145.18;100.00;47012.00;5087370;28;20040;-72
2024/01/05 04:44:30;;;;;;;8.40;1.40;;;;;;;-145.18;100.00;47019.81;5072435;28;20257;-72
2024/01/05 04:46:55;;;;;;;8.83;1.20;;;;;;;-145.18;100.00;47012.00;5081270;28;20055;-72
2024/01/05 04:49:21;;;;;;;9.53;1.53;;;;;;;-145.18;100.00;47010.06;5063427;28;20067;-72
2024/01/05 04:51:46;;;;;;;5.37;1.50;;;;;;;-145.18;100.00;47012.00;5060662;28;20032;-72
2024/01/05 04:54:11;;;;;;;10.30;1.40;;;;;;;-145.18;100.00;47008.09;5083221;28;20392;-72
2024/01/05 04:56:37;;;;;;;7.47;1.40;;;;;;;-145.18;100.00;47006.16;5068274;28;20103;-72
2024/01/05 04:59:02;;;;;;;4.97;1.87;;;;;;;-145.18;100.00;47000.28;5063226;28;20029;-72
2024/01/05 05:01:27;;;;;;;7.47;1.70;;;;;;;-145.18;100.00;47002.25;5075596;28;20032;-72
2024/01/05 05:03:53;;;;;;;9.03;1.50;;;;;;;-145.18;100.00;47000.28;5088116;28;20032;-72
2024/01/05 05:06:18;;;;;;;8.80;1.37;;;;;;;-145.18;100.00;46996.38;5073642;28;20082;-72
2024/01/05 05:08:44;;;;;;;5.13;1.07;;;;;;;-145.18;100.00;47002.25;5056041;28;20124;-72
2024/01/05 05:11:09;;;;;;;8.37;1.43;;;;;;;-145.18;100.00;46988.56;5092784;28;20052;-72
2024/01/05 05:13:34;;;;;;;6.27;1.47;;;;;;;-145.18;100.00;46988.56;5057152;28;20136;-72
2024/01/05 05:16:01;;;;;;;5.27;1.03;;;;;;;-145.18;100.00;46980.75;5085687;28;20038;-72
2024/01/05 05:18:26;;;;;;;10.63;1.47;;;;;;;-145.18;100.00;46972.94;5093557;28;20035;-72
2024/01/05 05:20:51;;;;;;;4.10;1.20;;;;;;;-145.18;100.00;46969.03;5101831;27;20292;-72
2024/01/05 05:23:17;;;;;;;6.10;1.27;;;;;;;-145.18;100.00;46967.09;5074491;28;20395;-72
2024/01/05 05:25:42;;;;;;;4.00;0.80;;;;;;;-145.18;100.00;46961.22;5080133;28;20508;-72
2024/01/05 05:28:07;;;;;;;4.67;0.67;;;;;;;-145.18;100.00;46947.53;5066773;28;20032;-72
2024/01/05 05:30:33;;;;;;;7.73;1.10;;;;;;;-145.18;100.00;46931.91;5092243;28;20114;-72
2024/01/05 05:32:58;;;;;;;5.87;1.00;;;;;;;-145.18;100.00;46918.25;5083302;28;20411;-72
2024/01/05 05:35:24;;;;;;;3.63;0.90;;;;;;;-145.18;100.00;46910.44;5065543;28;20031;-72
2024/01/05 05:37:49;;;;;;;4.13;0.73;;;;;;;-145.18;100.00;46904.56;5091989;28;20506;-72
2024/01/05 05:40:15;;;;;;;2.30;1.00;;;;;;;-145.18;100.00;46890.91;5082808;28;20127;-72
2024/01/05 05:42:40;;;;;;;4.80;0.73;;;;;;;-145.18;100.00;46883.09;5055844;28;20037;-72
2024/01/05 05:45:06;;;;;;;2.70;0.50;;;;;;;-145.18;100.00;46877.22;5084166;28;20059;-72
2024/01/05 05:47:31;;;;;;;2.87;0.60;;;;;;;-145.18;100.00;46861.59;5078258;28;20437;-72
2024/01/05 05:49:57;;;;;;;4.17;0.70;;;;;;;-145.18;100.00;46849.88;5083860;28;20364;-72
2024/01/05 05:52:22;;;;;;;1.03;0.40;;;;;;;-145.18;100.00;46845.97;5048973;28;20036;-72
2024/01/05 05:54:48;;;;;;;1.70;0.40;;;;;;;-145.18;100.00;46844.00;5100831;28;20032;-73
2024/01/05 05:57:13;;;;;;;4.23;0.57;;;;;;;-145.18;100.00;46847.91;5089625;28;20148;-72
2024/01/05 05:59:38;;;;;;;2.97;0.70;;;;;;;-145.18;100.00;46845.97;5063843;28;20113;-72
2024/01/05 06:02:04;;;;;;;1.23;0.40;;;;;;;-145.18;100.00;46845.97;5054577;28;20070;-72
2024/01/05 06:04:29;;;;;;;4.33;0.50;;;;;;;-145.18;100.00;46840.09;5090816;28;20047;-72
2024/01/05 06:06:55;;;;;;;1.73;0.30;;;;;;;-145.18;100.00;46836.19;5090973;28;20036;-72
2024/01/05 06:09:21;;;;;;;2.07;0.60;;;;;;;-145.18;100.00;46828.38;5071237;28;20076;-72
2024/01/05 06:11:47;;;;;;;0.40;0.30;;;;;;;-145.18;100.00;46830.34;5084109;28;20804;-72
2024/01/05 06:14:12;;;;;;;2.90;0.40;;;;;;;-145.18;100.00;46832.28;5087853;28;20054;-72
2024/01/05 06:16:38;;;;;;;0.90;0.40;;;;;;;-145.18;100.00;46830.34;5073752;28;20400;-72
2024/01/05 06:19:03;;;;;;;1.37;0.30;;;;;;;-145.18;100.00;46826.44;5090573;28;20039;-72
2024/01/05 06:21:29;;;;;;;1.43;0.40;;;;;;;-145.18;100.00;46812.75;5085755;28;20032;-72
2024/01/05 06:23:54;;;;;;;1.73;0.57;;;;;;;-145.18;100.00;46812.75;5086394;28;20098;-73
2024/01/05 06:26:19;;;;;;;0.97;0.30;;;;;;;-145.18;100.00;46804.94;5088610;28;20069;-72
2024/01/05 06:28:45;;;;;;;0.30;0.30;;;;;;;-145.18;100.00;46808.84;5066969;28;20037;-72
2024/01/05 06:31:11;;;;;;;0.80;0.30;;;;;;;-145.18;100.00;46812.75;5077115;28;20046;-72
2024/01/05 06:33:36;;;;;;;2.70;0.30;;;;;;;-145.18;100.00;46810.81;5093090;28;20032;-71
2024/01/05 06:36:01;;;;;;;1.53;0.33;;;;;;;-145.18;100.00;46820.56;5071138;28;20028;-72
2024/01/05 06:38:27;;;;;;;1.17;0.30;;;;;;;-145.18;100.00;46820.56;5086270;28;20036;-72
2024/01/05 06:40:52;;;;;;;2.83;0.30;;;;;;;-145.18;100.00;46826.44;5064286;28;20035;-72
2024/01/05 06:43:18;;;;;;;2.63;0.50;;;;;;;-145.18;100.00;46838.16;5056507;28;20119;-72
2024/01/05 06:45:43;;;;;;;0.47;0.20;;;;;;;-145.18;100.00;46842.06;5085304;28;20419;-72
2024/01/05 06:48:08;;;;;;;2.10;0.27;;;;;;;-145.18;100.00;46851.81;5076272;28;20093;-72
2024/01/05 06:50:34;;;;;;;0.77;0.30;;;;;;;-145.18;100.00;46849.88;5049084;28;20468;-72
2024/01/05 06:52:59;;;;;;;1.13;0.30;;;;;;;-145.18;100.00;46853.78;5088666;28;20392;-72
2024/01/05 06:55:24;;;;;;;6.83;0.30;;;;;;;-145.18;100.00;46859.63;5066134;28;20037;-72
2024/01/05 06:57:50;;;;;;;0.30;0.30;;;;;;;-145.18;100.00;46861.59;5090260;28;20032;-72
2024/01/05 07:00:16;;;;;;;3.00;0.30;;;;;;;-145.18;100.00;46863.53;5066931;28;20145;-72
2024/01/05 07:02:41;;;;;;;1.47;0.40;;;;;;;-145.18;100.00;46865.50;5095008;28;20035;-72
2024/01/05 07:05:07;;;;;;;0.77;0.20;;;;;;;-145.18;100.00;46869.41;5071326;28;20073;-72
2024/01/05 07:07:32;;;;;;;1.33;0.40;;;;;;;-145.18;100.00;46863.53;5080165;28;20047;-72
2024/01/05 07:09:58;;;;;;;2.07;0.40;;;;;;;-145.18;100.00;46867.44;5082714;28;20063;-72
2024/01/05 07:12:24;;;;;;;2.00;0.33;;;;;;;-145.18;100.00;46867.44;5091321;28;20588;-72
2024/01/05 07:14:49;;;;;;;1.87;0.40;;;;;;;-145.18;100.00;46871.38;5064463;28;20555;-72
2024/01/05 07:17:15;;;;;;;1.73;0.40;;;;;;;-145.18;100.00;46869.41;5072893;28;20093;-72
2024/01/05 07:19:40;;;;;;;0.97;0.30;;;;;;;-145.18;100.00;46869.41;5068251;28;20382;-72
2024/01/05 07:22:06;;;;;;;0.57;0.37;;;;;;;-145.18;100.00;46871.38;5074732;28;20044;-72
2024/01/05 07:24:33;;;;;;;0.50;0.20;;;;;;;-145.18;100.00;46869.41;5067505;28;20028;-72
2024/01/05 07:26:59;;;;;;;0.40;0.23;;;;;;;-145.18;100.00;46871.38;5071976;28;20032;-72
2024/01/05 07:29:24;;;;;;;3.07;0.97;;;;;;;-145.18;100.00;46875.28;5060784;28;20612;-72
2024/01/05 07:31:49;;;;;;;1.33;0.37;;;;;;;-145.18;100.00;46879.19;5064816;28;20044;-72
2024/01/05 07:34:15;;;;;;;0.93;0.30;;;;;;;-145.18;100.00;46879.19;5068259;28;20051;-72
2024/01/05 07:36:42;;;;;;;2.57;0.30;;;;;;;-145.18;100.00;46883.09;5045978;28;20036;-72
2024/01/05 07:39:12;;;;;;;2.67;0.30;;;;;;;-145.18;100.00;46887.00;5092509;28;20043;-72
2024/01/05 07:41:41;;;;;;;1.17;0.30;;;;;;;-145.18;100.00;46892.84;5083501;28;20296;-72
2024/01/05 07:44:06;;;;;;;0.20;0.20;;;;;;;-145.18;100.00;46896.75;5103586;28;20662;-72
2024/01/05 07:46:32;;;;;;;1.23;0.50;;;;;;;-145.18;100.00;46902.63;5043561;28;20325;-72
2024/01/05 07:48:57;;;;;;;0.77;0.40;;;;;;;-145.18;100.00;46906.53;5092414;28;20061;-73
2024/01/05 07:51:23;;;;;;;0.87;0.40;;;;;;;-145.18;100.00;46910.44;5094513;28;20502;-72
2024/01/05 07:53:49;;;;;;;2.90;0.60;;;;;;;-145.18;100.00;46912.38;5093926;28;20067;-72
2024/01/05 07:56:17;;;;;;;0.67;0.30;;;;;;;-145.18;100.00;46916.28;5094143;28;20036;-72
2024/01/05 07:58:43;;;;;;;0.63;0.40;;;;;;;-145.18;100.00;46922.16;5099333;28;20027;-72
2024/01/05 08:01:17;;;;;;;0.50;0.40;;;;;;;-145.18;100.00;46920.19;5085196;28;20393;-72
2024/01/05 08:03:44;;;;;;;4.00;1.80;;;;;;;-145.18;100.00;46926.06;5106395;27;20047;-73
2024/01/05 08:06:14;;;;;;;1.33;0.60;;;;;;;-145.18;100.00;46931.91;5084003;28;20326;-72
2024/01/05 08:08:41;;;;;;;1.93;0.70;;;;;;;-145.18;100.00;46931.91;5074412;28;20312;-72
2024/01/05 08:11:07;;;;;;;2.93;0.77;;;;;;;-145.18;100.00;46937.78;5091554;28;20291;-72
2024/01/05 08:13:32;;;;;;;1.40;0.50;;;;;;;-145.18;100.00;46939.72;5073919;28;20375;-72
2024/01/05 08:15:58;;;;;;;2.53;0.80;;;;;;;-145.18;100.00;46947.53;5092215;28;20039;-73
2024/01/05 08:18:23;;;;;;;2.67;0.87;;;;;;;-145.18;100.00;46947.53;5091298;28;20051;-72
2024/01/05 08:20:48;;;;;;;3.13;0.73;;;;;;;-145.18;100.00;46957.31;5072087;28;20035;-72
2024/01/05 08:23:14;;;;;;;2.23;0.93;;;;;;;-145.18;100.00;46959.25;5069560;28;20498;-72
2024/01/05 08:25:39;;;;;;;2.83;1.00;;;;;;;-145.18;100.00;46961.22;5088728;28;20047;-73
2024/01/05 08:28:05;;;;;;;3.37;0.90;;;;;;;-145.18;100.00;46967.09;5089834;28;20462;-72
2024/01/05 08:30:31;;;;;;;7.27;1.27;;;;;;;-145.18;100.00;46972.94;5092320;28;20032;-72
2024/01/05 08:32:57;;;;;;;2.50;0.80;;;;;;;-145.18;100.00;46974.91;5094476;28;20039;-72
2024/01/05 08:35:23;;;;;;;3.70;1.43;;;;;;;-145.18;100.00;46980.75;5076567;28;20031;-73
2024/01/05 08:37:48;;;;;;;2.00;1.20;;;;;;;-145.18;100.00;46988.56;5056648;28;20276;-72
2024/01/05 08:40:14;;;;;;;2.97;1.63;;;;;;;-145.18;100.00;46988.56;5093727;28;20446;-72
2024/01/05 08:42:40;;;;;;;2.57;1.37;;;;;;;-145.18;100.00;46990.53;5067121;28;20601;-73
2024/01/05 08:45:06;;;;;;;2.03;1.20;;;;;;;-145.18;100.00;46988.56;5088124;28;20152;-72
2024/01/05 08:47:32;;;;;;;4.93;1.63;;;;;;;-145.18;100.00;46986.63;5093165;28;20381;-72
2024/01/05 08:49:57;;;;;;;3.30;1.57;;;;;;;-145.18;100.00;46988.56;5069320;28;20040;-72
2024/01/05 08:52:22;;;;;;;1.80;1.30;;;;;;;-145.18;100.00;46980.75;5101656;28;20043;-72
2024/01/05 08:54:48;;;;;;;2.03;1.10;;;;;;;-145.18;100.00;46976.84;5079881;28;20063;-72
2024/01/05 08:57:13;;;;;;;3.30;1.70;;;;;;;-145.18;100.00;46980.75;5056056;28;20043;-72
2024/01/05 08:59:39;;;;;;;4.00;1.80;;;;;;;-145.18;100.00;46980.75;5092546;28;20036;-72
2024/01/05 09:02:05;;;;;;;2.27;1.60;;;;;;;-145.18;100.00;46976.84;5087038;28;20031;-72
2024/01/05 09:04:34;;;;;;;4.37;1.93;;;;;;;-145.18;100.00;46982.72;5071065;28;20659;-71
2024/01/05 09:07:00;;;;;;;3.67;1.50;;;;;;;-145.18;100.00;46974.91;5088598;28;20261;-72
2024/01/05 09:09:25;;;;;;;3.67;1.50;;;;;;;-145.18;100.00;46976.84;5087647;28;20265;-73
2024/01/05 09:11:50;;;;;;;3.30;1.57;;;;;;;-145.18;100.00;46980.75;5066276;28;20389;-72
2024/01/05 09:14:16;;;;;;;1.63;1.33;;;;;;;-145.18;100.00;46974.91;5091688;28;20071;-72
2024/01/05 09:16:41;;;;;;;1.60;1.23;;;;;;;-145.18;100.00;46980.75;5090477;28;20176;-72
2024/01/05 09:19:07;;;;;;;1.57;1.37;;;;;;;-145.18;100.00;46972.94;5090378;28;20032;-72
2024/01/05 09:21:32;;;;;;;4.47;1.60;;;;;;;-145.18;100.00;46976.84;5085664;28;20537;-72
2024/01/05 09:23:58;;;;;;;3.67;1.57;;;;;;;-145.18;100.00;46978.81;5080392;28;20276;-72
2024/01/05 09:26:23;;;;;;;3.27;1.40;;;;;;;-145.18;100.00;46976.84;5085686;28;20459;-73
2024/01/05 09:28:49;;;;;;;1.73;1.30;;;;;;;-145.18;100.00;46984.66;5082625;28;20643;-73
2024/01/05 09:31:14;;;;;;;2.27;1.30;;;;;;;-145.18;100.00;46980.75;5085495;28;20038;-72
2024/01/05 09:33:40;;;;;;;3.20;1.80;;;;;;;-145.18;100.00;46988.56;5068462;28;20082;-72
2024/01/05 09:36:06;;;;;;;3.60;1.77;;;;;;;-145.18;100.00;46992.47;5089751;28;20051;-72
2024/01/05 09:38:31;;;;;;;5.83;2.23;;;;;;;-145.18;100.00;46994.44;5060315;28;20031;-72
2024/01/05 09:40:57;;;;;;;2.23;1.83;;;;;;;-145.18;100.00;47002.25;5087714;28;20403;-72
2024/01/05 09:43:24;;;;;;;2.77;2.27;;;;;;;-145.18;100.00;47000.28;5088075;28;20544;-72
2024/01/05 09:45:50;;;;;;;3.50;2.60;;;;;;;-145.18;100.00;47000.28;5072298;28;20055;-72
2024/01/05 09:48:21;;;;;;;4.53;2.83;;;;;;;-145.18;100.00;47002.25;5085967;28;20268;-72
2024/01/05 09:50:51;;;;;;;5.23;2.80;;;;;;;-145.18;100.00;47008.09;5087651;28;20410;-72
2024/01/05 09:53:17;;;;;;;4.47;3.17;;;;;;;-145.18;100.00;47008.09;5086482;28;20281;-72
2024/01/05 09:55:53;;;;;;;5.20;3.17;;;;;;;-145.18;100.00;47010.06;5086627;28;20263;-72
2024/01/05 09:58:18;;;;;;;6.13;3.67;;;;;;;-145.18;100.00;47010.06;5054426;28;20043;-72
2024/01/05 10:00:49;;;;;;;4.90;3.70;;;;;;;-145.18;100.00;47010.06;5086415;28;20039;-72
2024/01/05 10:03:24;;;;;;;5.10;3.90;;;;;;;-145.18;100.00;47013.97;5089923;28;20024;-72
2024/01/05 10:05:51;;;;;;;7.18;4.00;;;;;;;-145.18;100.00;47013.97;5078103;28;20309;-72
2024/01/05 10:08:17;;;;;;;6.50;3.53;;;;;;;-145.18;100.00;47013.97;5090640;28;20043;-72
2024/01/05 10:10:52;;;;;;;5.57;4.27;;;;;;;-145.18;100.00;47013.97;5090185;28;20268;-72
2024/01/05 10:13:18;;;;;;;6.93;4.20;;;;;;;-145.18;100.00;47015.91;5091757;28;20288;-73
2024/01/05 10:16:02;;;;;;;7.30;4.67;;;;;;;-145.18;100.00;47013.97;5071520;28;20385;-72
2024/01/05 10:18:28;;;;;;;7.50;4.83;;;;;;;-145.18;100.00;47013.97;5073311;28;20257;-72
2024/01/05 10:20:55;;;;;;;5.67;4.00;;;;;;;-145.18;100.00;47012.00;5102882;28;20280;-72
2024/01/05 10:23:21;;;;;;;6.73;4.90;;;;;;;-145.18;100.00;47012.00;5093634;28;20015;-72
2024/01/05 10:25:47;;;;;;;9.23;5.27;;;;;;;-145.18;100.00;47013.97;5074183;28;20762;-72
2024/01/05 10:28:31;;;;;;;6.60;4.40;;;;;;;-145.18;100.00;47012.00;5073302;28;20099;-72
2024/01/05 10:31:19;;;;;;;6.07;4.83;;;;;;;-145.18;100.00;47015.91;5066773;28;20343;-77
2024/01/05 10:33:48;;;;;;;6.37;5.07;;;;;;;-145.18;100.00;47010.06;5090867;28;20319;-77
2024/01/05 10:36:17;;;;;;;6.13;4.90;;;;;;;-145.18;100.00;47006.16;5090231;28;20348;-77
2024/01/05 10:38:44;;;;;;;5.47;4.63;;;;;;;-145.18;100.00;47008.09;5053355;28;20761;-76
2024/01/05 10:41:09;;;;;;;7.17;4.70;;;;;;;-145.18;100.00;47002.25;5067165;28;20284;-77
2024/01/05 10:43:37;;;;;;;7.37;4.40;;;;;;;-145.18;100.00;47012.00;5080457;28;20328;-78
2024/01/05 10:46:04;;;;;;;6.20;4.80;;;;;;;-145.18;100.00;47008.09;5082816;28;20032;-77
2024/01/05 10:48:31;;;;;;;8.43;4.53;;;;;;;-145.18;100.00;47008.09;5075652;28;20268;-77
2024/01/05 10:50:58;;;;;;;8.27;4.77;;;;;;;-145.18;100.00;47008.09;5080450;28;20252;-77
2024/01/05 10:53:25;;;;;;;6.33;4.83;;;;;;;-145.18;100.00;47008.09;5076006;28;20285;-78
2024/01/05 10:55:50;;;;;;;6.97;4.73;;;;;;;-145.18;100.00;47012.00;5088875;28;20284;-77
2024/01/05 10:58:16;;;;;;;5.47;4.33;;;;;;;-145.18;100.00;47008.09;5075904;28;20749;-77
2024/01/05 11:00:41;;;;;;;4.33;3.93;;;;;;;-145.18;100.00;47004.19;5085330;28;20441;-77